createdAt,value
2018-08-03T00:01:11.789Z,0.00
2018-08-03T00:02:11.765Z,0.00
2018-08-03T00:04:05.221Z,0.00
2018-08-03T00:05:05.233Z,0.00
2018-08-03T00:06:58.284Z,0.00
2018-08-03T00:07:58.290Z,0.00
2018-08-03T00:09:51.318Z,0.00
2018-08-03T00:10:51.349Z,0.00
2018-08-03T00:12:44.393Z,0.00
2018-08-03T00:13:44.404Z,0.00
2018-08-03T00:15:37.427Z,0.00
2018-08-03T00:16:37.457Z,0.00
2018-08-03T00:18:30.514Z,0.00
2018-08-03T00:19:30.518Z,0.00
2018-08-03T00:21:23.540Z,0.00
2018-08-03T00:22:23.570Z,0.00
2018-08-03T00:24:17.025Z,0.00
2018-08-03T00:25:17.035Z,0.00
2018-08-03T00:27:10.066Z,0.00
2018-08-03T00:28:10.091Z,0.00
2018-08-03T00:30:03.138Z,0.00
2018-08-03T00:31:03.148Z,0.00
2018-08-03T00:32:56.193Z,0.00
2018-08-03T00:33:56.204Z,0.00
2018-08-03T00:35:49.234Z,0.00
2018-08-03T00:36:49.263Z,0.00
2018-08-03T00:38:42.309Z,0.00
2018-08-03T00:39:42.318Z,0.00
2018-08-03T00:41:35.248Z,0.00
2018-08-03T00:42:35.276Z,0.00
2018-08-03T00:44:28.742Z,0.00
2018-08-03T00:45:28.725Z,0.00
2018-08-03T00:47:21.648Z,0.00
2018-08-03T00:48:21.681Z,0.00
2018-08-03T00:50:15.115Z,0.00
2018-08-03T00:51:15.126Z,0.00
2018-08-03T00:53:08.046Z,0.00
2018-08-03T00:54:08.074Z,0.00
2018-08-03T00:56:01.017Z,0.00
2018-08-03T00:57:01.027Z,0.00
2018-08-03T00:58:53.983Z,0.00
2018-08-03T00:59:53.976Z,0.00
2018-08-03T01:01:46.898Z,0.00
2018-08-03T01:02:46.930Z,0.00
2018-08-03T01:04:39.870Z,0.00
2018-08-03T01:05:39.880Z,0.00
2018-08-03T01:07:32.801Z,0.00
2018-08-03T01:08:32.830Z,0.00
2018-08-03T01:10:25.773Z,0.00
2018-08-03T01:11:25.786Z,0.00
2018-08-03T01:13:19.198Z,0.00
2018-08-03T01:14:19.227Z,0.00
2018-08-03T01:16:12.175Z,0.00
2018-08-03T01:17:12.184Z,0.00
2018-08-03T01:19:05.112Z,0.00
2018-08-03T01:20:05.140Z,0.00
2018-08-03T01:21:58.090Z,0.00
2018-08-03T01:22:58.100Z,0.00
2018-08-03T01:24:51.025Z,0.00
2018-08-03T01:25:51.049Z,0.00
2018-08-03T01:27:43.997Z,0.00
2018-08-03T01:28:44.004Z,0.00
2018-08-03T01:30:36.943Z,0.00
2018-08-03T01:31:36.952Z,0.00
2018-08-03T01:33:29.874Z,0.00
2018-08-03T01:34:29.903Z,0.00
2018-08-03T01:36:22.849Z,0.00
2018-08-03T01:37:22.857Z,0.00
2018-08-03T01:39:15.787Z,0.00
2018-08-03T01:40:15.814Z,0.00
2018-08-03T01:42:08.762Z,0.00
2018-08-03T01:43:08.783Z,0.00
2018-08-03T01:45:01.700Z,0.00
2018-08-03T01:46:01.729Z,0.00
2018-08-03T01:47:54.677Z,0.00
2018-08-03T01:48:54.681Z,0.00
2018-08-03T01:50:47.605Z,0.00
2018-08-03T01:51:47.634Z,0.00
2018-08-03T01:53:40.571Z,0.00
2018-08-03T01:54:40.579Z,0.00
2018-08-03T01:56:33.520Z,0.00
2018-08-03T01:57:33.531Z,0.00
2018-08-03T01:59:26.458Z,0.00
2018-08-03T02:00:26.496Z,0.00
2018-08-03T02:02:19.922Z,0.00
2018-08-03T02:03:19.974Z,0.00
2018-08-03T02:05:12.858Z,0.00
2018-08-03T02:06:12.880Z,0.00
2018-08-03T02:08:05.847Z,0.00
2018-08-03T02:09:05.834Z,0.00
2018-08-03T02:10:59.751Z,0.00
2018-08-03T02:11:59.782Z,0.00
2018-08-03T02:13:52.717Z,0.00
2018-08-03T02:14:52.727Z,0.00
2018-08-03T02:16:45.674Z,0.00
2018-08-03T02:17:45.678Z,0.00
2018-08-03T02:19:38.603Z,0.00
2018-08-03T02:20:38.630Z,0.00
2018-08-03T02:22:31.578Z,0.00
2018-08-03T02:23:31.582Z,0.00
2018-08-03T02:25:24.504Z,0.00
2018-08-03T02:26:24.532Z,0.00
2018-08-03T02:28:17.472Z,0.00
2018-08-03T02:29:17.479Z,0.00
2018-08-03T02:31:10.403Z,0.00
2018-08-03T02:32:10.429Z,0.00
2018-08-03T02:34:03.863Z,0.00
2018-08-03T02:35:03.879Z,0.00
2018-08-03T02:36:56.796Z,0.00
2018-08-03T02:37:56.824Z,0.00
2018-08-03T02:39:49.768Z,0.00
2018-08-03T02:40:49.776Z,0.00
2018-08-03T02:42:42.728Z,0.00
2018-08-03T02:43:42.731Z,0.00
2018-08-03T02:45:35.654Z,0.00
2018-08-03T02:46:35.682Z,0.00
2018-08-03T02:48:28.625Z,0.00
2018-08-03T02:49:28.636Z,0.00
2018-08-03T02:51:21.560Z,0.00
2018-08-03T02:52:21.586Z,0.00
2018-08-03T02:54:14.534Z,0.00
2018-08-03T02:55:14.537Z,0.00
2018-08-03T02:57:07.953Z,0.00
2018-08-03T02:58:07.981Z,0.00
2018-08-03T03:00:00.928Z,0.00
2018-08-03T03:01:00.933Z,0.00
2018-08-03T03:02:53.859Z,0.00
2018-08-03T03:03:53.890Z,0.00
2018-08-03T03:05:46.828Z,0.00
2018-08-03T03:06:46.837Z,0.00
2018-08-03T03:08:40.271Z,0.00
2018-08-03T03:09:40.284Z,0.00
2018-08-03T03:11:33.199Z,4.00
2018-08-03T03:12:33.226Z,0.00
2018-08-03T03:14:26.173Z,4.00
2018-08-03T03:15:26.182Z,4.00
2018-08-03T03:17:19.096Z,4.00
2018-08-03T03:18:19.126Z,4.00
2018-08-03T03:20:12.558Z,8.00
2018-08-03T03:21:12.566Z,8.00
2018-08-03T03:23:05.490Z,12.00
2018-08-03T03:24:05.520Z,12.00
2018-08-03T03:25:58.457Z,16.00
2018-08-03T03:26:58.465Z,16.00
2018-08-03T03:28:51.387Z,20.00
2018-08-03T03:29:51.417Z,28.00
2018-08-03T03:31:44.855Z,32.00
2018-08-03T03:32:44.942Z,36.00
2018-08-03T03:34:37.807Z,48.00
2018-08-03T03:35:37.809Z,56.00
2018-08-03T03:37:30.732Z,68.00
2018-08-03T03:38:30.760Z,76.00
2018-08-03T03:40:24.193Z,88.00
2018-08-03T03:41:24.204Z,104.00
2018-08-03T03:43:18.616Z,120.00
2018-08-03T03:44:18.642Z,132.00
2018-08-03T03:46:11.590Z,156.00
2018-08-03T03:47:11.601Z,172.00
2018-08-03T03:49:04.520Z,200.00
2018-08-03T03:50:04.543Z,216.00
2018-08-03T03:51:57.491Z,252.00
2018-08-03T03:52:57.495Z,272.00
2018-08-03T03:54:50.417Z,308.00
2018-08-03T03:55:50.444Z,332.00
2018-08-03T03:57:43.391Z,376.00
2018-08-03T03:58:43.395Z,400.00
2018-08-03T04:00:36.344Z,452.00
2018-08-03T04:01:36.351Z,480.00
2018-08-03T04:03:29.767Z,536.00
2018-08-03T04:04:29.796Z,572.00
2018-08-03T04:06:22.735Z,640.00
2018-08-03T04:07:22.741Z,680.00
2018-08-03T04:09:15.662Z,752.00
2018-08-03T04:10:15.691Z,796.00
2018-08-03T04:12:08.629Z,892.00
2018-08-03T04:13:08.638Z,968.00
2018-08-03T04:15:01.558Z,1052.00
2018-08-03T04:16:01.589Z,1104.00
2018-08-03T04:17:54.530Z,1216.00
2018-08-03T04:18:54.536Z,1292.00
2018-08-03T04:20:47.464Z,1416.00
2018-08-03T04:21:47.490Z,1492.00
2018-08-03T04:23:40.497Z,1624.00
2018-08-03T04:24:40.501Z,1696.00
2018-08-03T04:26:38.446Z,1852.00
2018-08-03T04:27:38.452Z,1932.00
2018-08-03T04:29:31.403Z,2092.00
2018-08-03T04:30:31.427Z,2176.00
2018-08-03T04:32:24.477Z,2340.00
2018-08-03T04:33:24.488Z,2424.00
2018-08-03T04:35:18.947Z,2596.00
2018-08-03T04:36:18.974Z,2696.00
2018-08-03T04:38:12.957Z,2872.00
2018-08-03T04:39:12.952Z,2968.00
2018-08-03T04:41:06.013Z,3152.00
2018-08-03T04:42:06.038Z,3252.00
2018-08-03T04:43:59.059Z,3424.00
2018-08-03T04:44:59.065Z,3524.00
2018-08-03T04:46:52.111Z,3740.00
2018-08-03T04:47:52.122Z,3856.00
2018-08-03T04:49:45.149Z,4104.00
2018-08-03T04:50:45.181Z,4260.00
2018-08-03T04:52:38.225Z,4608.00
2018-08-03T04:53:38.237Z,4864.00
2018-08-03T04:55:41.176Z,5516.00
2018-08-03T04:56:41.205Z,5704.00
2018-08-03T04:58:34.155Z,5792.00
2018-08-03T04:59:34.155Z,5796.00
2018-08-03T05:01:27.081Z,5776.00
2018-08-03T05:02:27.108Z,5804.00
2018-08-03T05:04:20.055Z,5916.00
2018-08-03T05:05:20.066Z,5992.00
2018-08-03T05:07:13.007Z,6244.00
2018-08-03T05:08:13.015Z,6400.00
2018-08-03T05:10:05.943Z,6620.00
2018-08-03T05:11:05.971Z,6784.00
2018-08-03T05:12:58.916Z,5592.00
2018-08-03T05:13:58.924Z,5080.00
2018-08-03T05:15:51.858Z,4248.00
2018-08-03T05:16:51.886Z,4456.00
2018-08-03T05:18:44.830Z,5512.00
2018-08-03T05:19:44.839Z,6884.00
2018-08-03T05:21:37.766Z,6660.00
2018-08-03T05:22:37.791Z,6236.00
2018-08-03T05:24:30.738Z,5172.00
2018-08-03T05:25:30.746Z,5280.00
2018-08-03T05:27:23.672Z,4916.00
2018-08-03T05:28:23.700Z,4556.00
2018-08-03T05:30:16.694Z,4636.00
2018-08-03T05:31:16.653Z,4868.00
2018-08-03T05:33:09.601Z,5004.00
2018-08-03T05:34:09.606Z,4872.00
2018-08-03T05:36:02.623Z,5092.00
2018-08-03T05:37:02.560Z,5292.00
2018-08-03T05:38:55.504Z,5712.00
2018-08-03T05:39:55.513Z,5624.00
2018-08-03T05:41:48.444Z,6088.00
2018-08-03T05:42:48.468Z,5608.00
2018-08-03T05:44:41.412Z,6800.00
2018-08-03T05:45:41.424Z,5920.00
2018-08-03T05:47:34.345Z,5308.00
2018-08-03T05:48:34.373Z,5376.00
2018-08-03T05:50:27.318Z,5488.00
2018-08-03T05:51:27.334Z,5480.00
2018-08-03T05:53:20.252Z,7328.00
2018-08-03T05:54:20.284Z,8420.00
2018-08-03T05:56:13.226Z,8928.00
2018-08-03T05:57:13.232Z,11248.00
2018-08-03T05:59:06.184Z,14464.00
2018-08-03T06:00:06.189Z,15040.00
2018-08-03T06:01:59.116Z,15360.00
2018-08-03T06:02:59.147Z,14880.00
2018-08-03T06:04:52.090Z,16960.00
2018-08-03T06:05:52.098Z,17280.00
2018-08-03T06:07:45.027Z,17376.00
2018-08-03T06:08:45.057Z,17536.00
2018-08-03T06:10:38.005Z,17152.00
2018-08-03T06:11:38.013Z,17312.00
2018-08-03T06:13:30.944Z,19168.00
2018-08-03T06:14:30.973Z,19456.00
2018-08-03T06:16:23.921Z,19104.00
2018-08-03T06:17:23.934Z,19328.00
2018-08-03T06:19:16.865Z,19744.00
2018-08-03T06:20:16.897Z,19840.00
2018-08-03T06:22:09.852Z,20608.00
2018-08-03T06:23:09.861Z,20768.00
2018-08-03T06:25:02.817Z,21216.00
2018-08-03T06:26:02.826Z,21280.00
2018-08-03T06:27:55.759Z,21856.00
2018-08-03T06:28:55.794Z,21664.00
2018-08-03T06:30:48.750Z,22144.00
2018-08-03T06:31:48.764Z,22592.00
2018-08-03T06:33:41.695Z,22912.00
2018-08-03T06:34:41.725Z,22944.00
2018-08-03T06:36:34.685Z,23808.00
2018-08-03T06:37:34.697Z,24032.00
2018-08-03T06:39:27.634Z,22752.00
2018-08-03T06:40:27.666Z,22912.00
2018-08-03T06:42:20.626Z,23200.00
2018-08-03T06:43:20.636Z,23616.00
2018-08-03T06:45:13.578Z,23936.00
2018-08-03T06:46:13.614Z,23872.00
2018-08-03T06:48:06.574Z,24800.00
2018-08-03T06:49:06.583Z,25248.00
2018-08-03T06:50:59.543Z,26112.00
2018-08-03T06:51:59.557Z,26784.00
2018-08-03T06:53:52.549Z,27008.00
2018-08-03T06:54:52.528Z,28608.00
2018-08-03T06:56:45.487Z,28672.00
2018-08-03T06:57:45.500Z,28896.00
2018-08-03T06:59:38.438Z,28928.00
2018-08-03T07:00:38.478Z,29152.00
2018-08-03T07:02:31.433Z,29664.00
2018-08-03T07:03:31.444Z,30016.00
2018-08-03T07:05:24.385Z,30464.00
2018-08-03T07:06:24.420Z,30976.00
2018-08-03T07:08:17.379Z,32544.00
2018-08-03T07:09:17.395Z,33376.00
2018-08-03T07:11:10.336Z,33312.00
2018-08-03T07:12:10.372Z,33824.00
2018-08-03T07:14:03.331Z,33504.00
2018-08-03T07:15:03.350Z,32800.00
2018-08-03T07:16:56.462Z,16832.00
2018-08-03T07:17:56.476Z,7612.00
2018-08-03T07:19:49.446Z,6560.00
2018-08-03T07:20:49.456Z,6472.00
2018-08-03T07:22:42.418Z,6464.00
2018-08-03T07:23:42.426Z,6456.00
2018-08-03T07:25:35.362Z,6444.00
2018-08-03T07:26:35.412Z,6432.00
2018-08-03T07:28:28.353Z,6408.00
2018-08-03T07:29:28.360Z,6396.00
2018-08-03T07:31:21.299Z,6388.00
2018-08-03T07:32:21.332Z,6380.00
2018-08-03T07:34:14.290Z,6356.00
2018-08-03T07:35:14.300Z,6344.00
2018-08-03T07:37:07.230Z,6320.00
2018-08-03T07:38:07.263Z,6308.00
2018-08-03T07:40:00.234Z,6300.00
2018-08-03T07:41:00.238Z,6304.00
2018-08-03T07:42:53.236Z,6312.00
2018-08-03T07:43:53.200Z,6316.00
2018-08-03T07:45:46.133Z,6304.00
2018-08-03T07:46:46.161Z,6292.00
2018-08-03T07:48:39.163Z,6272.00
2018-08-03T07:49:39.125Z,6264.00
2018-08-03T07:51:32.060Z,6240.00
2018-08-03T07:52:32.138Z,6232.00
2018-08-03T07:54:25.050Z,6204.00
2018-08-03T07:55:25.060Z,6184.00
2018-08-03T07:57:17.993Z,6156.00
2018-08-03T07:58:18.026Z,6144.00
2018-08-03T08:00:10.972Z,6112.00
2018-08-03T08:01:10.983Z,6092.00
2018-08-03T08:03:03.942Z,6040.00
2018-08-03T08:04:03.944Z,6004.00
2018-08-03T08:05:56.895Z,5956.00
2018-08-03T08:06:56.906Z,5936.00
2018-08-03T08:08:49.861Z,5904.00
2018-08-03T08:09:49.868Z,5892.00
2018-08-03T08:11:42.798Z,5868.00
2018-08-03T08:12:42.830Z,5848.00
2018-08-03T08:14:35.778Z,5820.00
2018-08-03T08:15:35.856Z,5812.00
2018-08-03T08:17:28.718Z,5804.00
2018-08-03T08:18:28.755Z,5804.00
2018-08-03T08:20:21.699Z,5796.00
2018-08-03T08:21:21.713Z,5792.00
2018-08-03T08:23:14.645Z,5768.00
2018-08-03T08:24:14.676Z,5760.00
2018-08-03T08:26:07.645Z,5740.00
2018-08-03T08:27:07.639Z,5736.00
2018-08-03T08:29:00.569Z,5728.00
2018-08-03T08:30:00.602Z,5712.00
2018-08-03T08:31:53.553Z,5676.00
2018-08-03T08:32:53.562Z,5664.00
2018-08-03T08:34:46.518Z,5624.00
2018-08-03T08:35:46.526Z,5612.00
2018-08-03T08:37:39.454Z,5560.00
2018-08-03T08:38:39.487Z,5536.00
2018-08-03T08:40:32.441Z,5524.00
2018-08-03T08:41:32.447Z,5512.00
2018-08-03T08:43:25.413Z,5480.00
2018-08-03T08:44:25.425Z,5472.00
2018-08-03T08:46:18.357Z,5448.00
2018-08-03T08:47:18.369Z,5436.00
2018-08-03T08:49:11.352Z,5420.00
2018-08-03T08:50:11.336Z,5404.00
2018-08-03T08:52:04.288Z,5360.00
2018-08-03T08:53:04.299Z,5336.00
2018-08-03T08:54:57.231Z,5288.00
2018-08-03T08:55:57.265Z,5260.00
2018-08-03T08:57:50.229Z,5212.00
2018-08-03T08:58:50.252Z,5204.00
2018-08-03T09:00:43.199Z,5176.00
2018-08-03T09:01:43.205Z,5172.00
2018-08-03T09:03:36.139Z,5152.00
2018-08-03T09:04:36.166Z,5136.00
2018-08-03T09:06:29.122Z,5096.00
2018-08-03T09:07:29.178Z,5092.00
2018-08-03T09:09:22.061Z,5088.00
2018-08-03T09:10:22.090Z,5092.00
2018-08-03T09:12:15.041Z,5116.00
2018-08-03T09:13:15.086Z,5120.00
2018-08-03T09:15:07.984Z,5132.00
2018-08-03T09:16:08.017Z,5124.00
2018-08-03T09:18:00.972Z,5120.00
2018-08-03T09:19:01.000Z,5112.00
2018-08-03T09:20:53.907Z,5092.00
2018-08-03T09:21:53.940Z,5088.00
2018-08-03T09:23:46.896Z,5100.00
2018-08-03T09:24:47.016Z,5100.00
2018-08-03T09:26:39.866Z,5120.00
2018-08-03T09:27:39.880Z,5128.00
2018-08-03T09:29:32.806Z,5160.00
2018-08-03T09:30:32.838Z,5168.00
2018-08-03T09:32:25.797Z,5180.00
2018-08-03T09:33:25.806Z,5192.00
2018-08-03T09:35:18.738Z,5264.00
2018-08-03T09:36:18.771Z,5380.00
2018-08-03T09:38:11.727Z,5716.00
2018-08-03T09:39:11.750Z,5856.00
2018-08-03T09:41:04.667Z,6076.00
2018-08-03T09:42:04.699Z,6132.00
2018-08-03T09:43:57.654Z,6276.00
2018-08-03T09:44:57.661Z,6568.00
2018-08-03T09:46:50.651Z,6836.00
2018-08-03T09:47:50.637Z,7008.00
2018-08-03T09:49:43.574Z,7200.00
2018-08-03T09:50:43.584Z,7096.00
2018-08-03T09:52:36.542Z,6872.00
2018-08-03T09:53:36.550Z,6696.00
2018-08-03T09:55:29.649Z,6956.00
2018-08-03T09:56:29.680Z,7092.00
2018-08-03T09:58:22.642Z,7156.00
2018-08-03T09:59:22.653Z,7164.00
2018-08-03T10:01:15.585Z,7096.00
2018-08-03T10:02:15.623Z,7052.00
2018-08-03T10:04:08.575Z,7048.00
2018-08-03T10:05:08.582Z,7040.00
2018-08-03T10:07:01.515Z,6656.00
2018-08-03T10:08:01.545Z,6292.00
2018-08-03T10:09:54.702Z,5996.00
2018-08-03T10:10:54.509Z,5912.00
2018-08-03T10:12:47.480Z,5744.00
2018-08-03T10:13:47.474Z,5640.00
2018-08-03T10:15:40.588Z,5432.00
2018-08-03T10:16:40.436Z,5384.00
2018-08-03T10:18:33.396Z,5632.00
2018-08-03T10:19:33.408Z,5744.00
2018-08-03T10:21:26.333Z,5936.00
2018-08-03T10:22:26.416Z,6024.00
2018-08-03T10:24:19.323Z,6124.00
2018-08-03T10:25:19.334Z,5988.00
2018-08-03T10:27:12.268Z,5960.00
2018-08-03T10:28:12.302Z,5964.00
2018-08-03T10:30:05.259Z,6412.00
2018-08-03T10:31:05.266Z,6564.00
2018-08-03T10:32:58.205Z,5976.00
2018-08-03T10:33:58.238Z,5892.00
2018-08-03T10:35:51.189Z,6196.00
2018-08-03T10:36:51.203Z,6576.00
2018-08-03T10:38:44.169Z,6892.00
2018-08-03T10:39:44.166Z,7240.00
2018-08-03T10:41:37.100Z,7032.00
2018-08-03T10:42:37.136Z,6632.00
2018-08-03T10:44:30.091Z,6132.00
2018-08-03T10:45:30.103Z,5976.00
2018-08-03T10:47:23.035Z,6252.00
2018-08-03T10:48:23.066Z,6220.00
2018-08-03T10:50:16.020Z,6244.00
2018-08-03T10:51:16.073Z,6108.00
2018-08-03T10:53:08.965Z,5892.00
2018-08-03T10:54:08.998Z,5868.00
2018-08-03T10:56:01.952Z,5856.00
2018-08-03T10:57:01.959Z,5844.00
2018-08-03T10:58:54.892Z,5684.00
2018-08-03T10:59:54.924Z,5604.00
2018-08-03T11:01:47.881Z,5588.00
2018-08-03T11:02:47.889Z,5604.00
2018-08-03T11:04:40.846Z,5764.00
2018-08-03T11:05:40.853Z,5792.00
2018-08-03T11:07:33.799Z,5636.00
2018-08-03T11:08:33.834Z,5600.00
2018-08-03T11:10:26.791Z,5708.00
2018-08-03T11:11:26.799Z,5848.00
2018-08-03T11:13:19.779Z,5784.00
2018-08-03T11:14:19.778Z,5732.00
2018-08-03T11:16:12.735Z,5912.00
2018-08-03T11:17:12.745Z,6000.00
2018-08-03T11:19:05.676Z,5736.00
2018-08-03T11:20:05.710Z,5644.00
2018-08-03T11:21:58.667Z,5544.00
2018-08-03T11:22:58.680Z,5552.00
2018-08-03T11:24:51.617Z,5180.00
2018-08-03T11:25:51.644Z,4828.00
2018-08-03T11:27:44.601Z,4692.00
2018-08-03T11:28:44.614Z,4664.00
2018-08-03T11:30:37.570Z,4660.00
2018-08-03T11:31:37.579Z,4720.00
2018-08-03T11:33:30.514Z,4812.00
2018-08-03T11:34:30.589Z,4948.00
2018-08-03T11:36:23.505Z,4988.00
2018-08-03T11:37:23.519Z,5016.00
2018-08-03T11:39:16.446Z,5208.00
2018-08-03T11:40:16.481Z,5232.00
2018-08-03T11:42:09.439Z,5288.00
2018-08-03T11:43:09.449Z,5384.00
2018-08-03T11:45:02.385Z,5540.00
2018-08-03T11:46:02.417Z,5636.00
2018-08-03T11:47:55.369Z,5764.00
2018-08-03T11:48:55.383Z,5836.00
2018-08-03T11:50:48.321Z,5620.00
2018-08-03T11:51:48.350Z,5408.00
2018-08-03T11:53:41.309Z,5252.00
2018-08-03T11:54:41.325Z,5232.00
2018-08-03T11:56:34.301Z,5156.00
2018-08-03T11:57:34.289Z,5072.00
2018-08-03T11:59:27.249Z,4864.00
2018-08-03T12:00:27.258Z,4776.00
2018-08-03T12:02:20.218Z,4656.00
2018-08-03T12:03:20.225Z,4656.00
2018-08-03T12:05:13.158Z,4564.00
2018-08-03T12:06:13.192Z,4764.00
2018-08-03T12:08:06.156Z,5300.00
2018-08-03T12:09:06.159Z,5660.00
2018-08-03T12:10:59.101Z,5500.00
2018-08-03T12:11:59.132Z,5244.00
2018-08-03T12:13:52.090Z,4772.00
2018-08-03T12:14:52.102Z,4668.00
2018-08-03T12:16:45.039Z,4832.00
2018-08-03T12:17:45.209Z,4956.00
2018-08-03T12:19:38.029Z,4964.00
2018-08-03T12:20:38.039Z,4876.00
2018-08-03T12:22:30.997Z,4768.00
2018-08-03T12:23:31.022Z,4872.00
2018-08-03T12:25:23.940Z,5016.00
2018-08-03T12:26:23.974Z,5128.00
2018-08-03T12:28:16.926Z,5216.00
2018-08-03T12:29:16.939Z,5028.00
2018-08-03T12:31:09.906Z,4848.00
2018-08-03T12:32:09.906Z,4888.00
2018-08-03T12:34:02.865Z,4952.00
2018-08-03T12:35:02.875Z,4948.00
2018-08-03T12:36:55.836Z,4712.00
2018-08-03T12:37:55.844Z,4572.00
2018-08-03T12:39:48.801Z,4648.00
2018-08-03T12:40:48.812Z,4712.00
2018-08-03T12:42:41.804Z,4876.00
2018-08-03T12:43:41.788Z,4924.00
2018-08-03T12:45:34.723Z,4792.00
2018-08-03T12:46:34.758Z,4652.00
2018-08-03T12:48:27.717Z,4728.00
2018-08-03T12:49:27.724Z,4868.00
2018-08-03T12:51:20.662Z,4784.00
2018-08-03T12:52:20.694Z,4808.00
2018-08-03T12:54:13.654Z,4880.00
2018-08-03T12:55:13.665Z,4888.00
2018-08-03T12:57:06.602Z,4948.00
2018-08-03T12:58:06.633Z,4992.00
2018-08-03T12:59:59.585Z,5392.00
2018-08-03T13:00:59.600Z,5752.00
2018-08-03T13:02:52.568Z,6028.00
2018-08-03T13:03:52.573Z,6100.00
2018-08-03T13:05:45.505Z,5844.00
2018-08-03T13:06:45.538Z,5764.00
2018-08-03T13:08:38.500Z,5544.00
2018-08-03T13:09:38.506Z,5472.00
2018-08-03T13:11:31.444Z,5744.00
2018-08-03T13:12:31.477Z,5756.00
2018-08-03T13:14:24.434Z,5728.00
2018-08-03T13:15:24.445Z,5616.00
2018-08-03T13:17:17.377Z,5620.00
2018-08-03T13:18:17.411Z,5756.00
2018-08-03T13:20:10.420Z,5828.00
2018-08-03T13:21:10.493Z,5864.00
2018-08-03T13:23:03.400Z,6112.00
2018-08-03T13:24:03.439Z,6416.00
2018-08-03T13:25:56.336Z,6684.00
2018-08-03T13:26:56.376Z,6708.00
2018-08-03T13:28:49.329Z,6356.00
2018-08-03T13:29:49.339Z,6216.00
2018-08-03T13:31:42.279Z,5920.00
2018-08-03T13:32:42.313Z,5764.00
2018-08-03T13:34:35.278Z,5296.00
2018-08-03T13:35:35.285Z,4960.00
2018-08-03T13:37:28.215Z,4596.00
2018-08-03T13:38:28.249Z,4552.00
2018-08-03T13:40:21.208Z,4580.00
2018-08-03T13:41:21.219Z,4812.00
2018-08-03T13:43:14.178Z,4956.00
2018-08-03T13:44:14.189Z,4908.00
2018-08-03T13:46:07.148Z,4708.00
2018-08-03T13:47:07.158Z,4544.00
2018-08-03T13:49:00.117Z,4604.00
2018-08-03T13:50:00.127Z,4668.00
2018-08-03T13:51:53.062Z,4916.00
2018-08-03T13:52:53.095Z,4976.00
2018-08-03T13:54:46.048Z,5088.00
2018-08-03T13:55:46.063Z,5092.00
2018-08-03T13:57:39.028Z,4996.00
2018-08-03T13:58:39.029Z,5060.00
2018-08-03T14:00:31.989Z,5340.00
2018-08-03T14:01:32.003Z,5556.00
2018-08-03T14:03:24.935Z,5760.00
2018-08-03T14:04:25.017Z,5932.00
2018-08-03T14:06:17.967Z,5968.00
2018-08-03T14:07:17.971Z,5612.00
2018-08-03T14:09:10.935Z,5140.00
2018-08-03T14:10:10.938Z,5080.00
2018-08-03T14:12:03.910Z,5060.00
2018-08-03T14:13:03.908Z,4920.00
2018-08-03T14:14:56.867Z,4652.00
2018-08-03T14:15:56.877Z,4536.00
2018-08-03T14:17:49.811Z,4412.00
2018-08-03T14:18:49.845Z,4384.00
2018-08-03T14:20:42.803Z,4468.00
2018-08-03T14:21:42.814Z,4532.00
2018-08-03T14:23:35.749Z,4420.00
2018-08-03T14:24:35.782Z,4424.00
2018-08-03T14:26:28.739Z,4392.00
2018-08-03T14:27:28.748Z,4344.00
2018-08-03T14:29:21.707Z,4300.00
2018-08-03T14:30:21.717Z,4308.00
2018-08-03T14:32:14.654Z,4196.00
2018-08-03T14:33:14.688Z,4100.00
2018-08-03T14:35:07.646Z,4164.00
2018-08-03T14:36:07.659Z,4156.00
2018-08-03T14:38:00.622Z,4128.00
2018-08-03T14:39:00.630Z,4136.00
2018-08-03T14:40:53.583Z,4164.00
2018-08-03T14:41:53.593Z,4232.00
2018-08-03T14:43:46.528Z,4280.00
2018-08-03T14:44:46.563Z,4360.00
2018-08-03T14:46:39.520Z,4444.00
2018-08-03T14:47:39.528Z,4504.00
2018-08-03T14:49:32.486Z,4548.00
2018-08-03T14:50:32.494Z,4616.00
2018-08-03T14:52:25.431Z,4752.00
2018-08-03T14:53:25.464Z,4800.00
2018-08-03T14:55:18.476Z,4760.00
2018-08-03T14:56:18.436Z,4672.00
2018-08-03T14:58:11.397Z,4568.00
2018-08-03T14:59:12.968Z,4556.00
2018-08-03T15:01:04.852Z,4612.00
2018-08-03T15:02:04.871Z,4632.00
2018-08-03T15:03:57.799Z,4628.00
2018-08-03T15:04:57.837Z,4648.00
2018-08-03T15:06:50.828Z,4692.00
2018-08-03T15:07:50.925Z,4848.00
2018-08-03T15:09:43.797Z,4844.00
2018-08-03T15:10:43.807Z,4888.00
2018-08-03T15:12:36.743Z,4900.00
2018-08-03T15:13:36.778Z,4908.00
2018-08-03T15:15:29.730Z,4972.00
2018-08-03T15:16:29.842Z,4980.00
2018-08-03T15:18:22.677Z,5060.00
2018-08-03T15:19:22.814Z,5120.00
2018-08-03T15:21:15.763Z,5212.00
2018-08-03T15:22:15.716Z,5216.00
2018-08-03T15:24:08.667Z,5104.00
2018-08-03T15:25:08.732Z,5032.00
2018-08-03T15:27:01.657Z,4928.00
2018-08-03T15:28:01.666Z,4892.00
2018-08-03T15:29:54.663Z,4972.00
2018-08-03T15:30:54.634Z,4988.00
2018-08-03T15:32:47.566Z,4944.00
2018-08-03T15:33:47.602Z,4896.00
2018-08-03T15:35:40.575Z,4804.00
2018-08-03T15:36:40.708Z,4740.00
2018-08-03T15:38:33.511Z,4696.00
2018-08-03T15:39:33.541Z,4664.00
2018-08-03T15:41:26.499Z,4644.00
2018-08-03T15:42:26.511Z,4660.00
2018-08-03T15:44:19.443Z,4676.00
2018-08-03T15:45:19.479Z,4656.00
2018-08-03T15:47:12.463Z,4616.00
2018-08-03T15:48:12.445Z,4564.00
2018-08-03T15:50:05.412Z,4492.00
2018-08-03T15:51:05.413Z,4492.00
2018-08-03T15:52:58.349Z,4456.00
2018-08-03T15:53:58.383Z,4444.00
2018-08-03T15:55:51.340Z,4328.00
2018-08-03T15:56:51.351Z,4296.00
2018-08-03T15:58:44.296Z,4164.00
2018-08-03T15:59:44.319Z,4128.00
2018-08-03T16:01:37.278Z,4140.00
2018-08-03T16:02:37.287Z,4180.00
2018-08-03T16:04:30.228Z,4284.00
2018-08-03T16:05:30.255Z,4344.00
2018-08-03T16:07:23.212Z,4464.00
2018-08-03T16:08:23.224Z,4520.00
2018-08-03T16:10:16.179Z,4584.00
2018-08-03T16:11:16.189Z,4608.00
2018-08-03T16:13:09.125Z,4604.00
2018-08-03T16:14:09.165Z,4624.00
2018-08-03T16:16:02.118Z,4708.00
2018-08-03T16:17:02.128Z,4760.00
2018-08-03T16:18:55.109Z,4848.00
2018-08-03T16:19:55.101Z,4916.00
2018-08-03T16:21:48.056Z,4984.00
2018-08-03T16:22:48.065Z,4972.00
2018-08-03T16:24:41.003Z,4852.00
2018-08-03T16:25:41.071Z,4848.00
2018-08-03T16:27:33.991Z,4880.00
2018-08-03T16:28:34.008Z,4928.00
2018-08-03T16:30:26.957Z,5032.00
2018-08-03T16:31:26.970Z,5144.00
2018-08-03T16:33:19.905Z,5008.00
2018-08-03T16:34:19.938Z,5004.00
2018-08-03T16:36:12.896Z,4984.00
2018-08-03T16:37:12.905Z,4992.00
2018-08-03T16:39:05.838Z,4992.00
2018-08-03T16:40:05.870Z,4864.00
2018-08-03T16:41:58.828Z,4764.00
2018-08-03T16:42:58.841Z,4724.00
2018-08-03T16:44:51.775Z,4628.00
2018-08-03T16:45:51.808Z,4592.00
2018-08-03T16:47:44.765Z,4416.00
2018-08-03T16:48:44.773Z,4324.00
2018-08-03T16:50:37.733Z,4244.00
2018-08-03T16:51:37.743Z,4200.00
2018-08-03T16:53:30.674Z,4196.00
2018-08-03T16:54:30.708Z,4184.00
2018-08-03T16:56:23.666Z,4152.00
2018-08-03T16:57:23.677Z,4104.00
2018-08-03T16:59:17.103Z,4024.00
2018-08-03T17:00:17.140Z,3984.00
2018-08-03T17:02:10.097Z,3912.00
2018-08-03T17:03:10.110Z,3864.00
2018-08-03T17:05:03.039Z,3740.00
2018-08-03T17:06:03.074Z,3656.00
2018-08-03T17:07:56.031Z,3532.00
2018-08-03T17:08:56.097Z,3460.00
2018-08-03T17:10:48.994Z,3292.00
2018-08-03T17:11:49.007Z,3172.00
2018-08-03T17:13:41.942Z,3020.00
2018-08-03T17:14:41.976Z,3028.00
2018-08-03T17:16:34.925Z,3180.00
2018-08-03T17:17:34.941Z,3240.00
2018-08-03T17:19:27.873Z,3280.00
2018-08-03T17:20:27.906Z,3200.00
2018-08-03T17:22:20.863Z,2928.00
2018-08-03T17:23:20.873Z,2840.00
2018-08-03T17:25:13.812Z,2788.00
2018-08-03T17:26:13.845Z,2780.00
2018-08-03T17:28:06.875Z,2752.00
2018-08-03T17:29:06.809Z,2732.00
2018-08-03T17:30:59.767Z,2580.00
2018-08-03T17:31:59.818Z,2460.00
2018-08-03T17:33:52.707Z,2324.00
2018-08-03T17:34:52.741Z,2296.00
2018-08-03T17:36:45.704Z,2304.00
2018-08-03T17:37:45.705Z,2344.00
2018-08-03T17:39:38.635Z,2472.00
2018-08-03T17:40:38.670Z,2532.00
2018-08-03T17:42:31.708Z,2604.00
2018-08-03T17:43:31.633Z,2580.00
2018-08-03T17:45:24.583Z,2508.00